createdAt,value
2023-02-09T00:00:01.866Z,0.00
2023-02-09T00:00:59.195Z,0.00
2023-02-09T00:01:59.179Z,0.00
2023-02-09T00:02:59.088Z,0.00
2023-02-09T00:03:59.125Z,0.00
2023-02-09T00:04:59.104Z,0.00
2023-02-09T00:05:59.061Z,0.00
2023-02-09T00:07:00.725Z,0.00
2023-02-09T00:08:00.078Z,0.00
2023-02-09T00:08:59.071Z,0.00
2023-02-09T00:09:59.037Z,0.00
2023-02-09T00:10:59.038Z,0.00
2023-02-09T00:11:59.029Z,0.00
2023-02-09T00:12:59.027Z,0.00
2023-02-09T00:13:58.991Z,0.00
2023-02-09T00:14:59.001Z,0.00
2023-02-09T00:15:59.045Z,0.00
2023-02-09T00:16:59.000Z,0.00
2023-02-09T00:17:58.964Z,0.00
2023-02-09T00:18:59.004Z,0.00
2023-02-09T00:19:59.465Z,0.00
2023-02-09T00:21:30.858Z,0.00
2023-02-09T00:21:59.493Z,0.00
2023-02-09T00:22:59.927Z,0.00
2023-02-09T00:23:58.948Z,0.00
2023-02-09T00:24:58.918Z,0.00
2023-02-09T00:25:58.897Z,0.00
2023-02-09T00:26:58.913Z,0.00
2023-02-09T00:27:59.028Z,0.00
2023-02-09T00:28:58.907Z,0.00
2023-02-09T00:29:58.891Z,0.00
2023-02-09T00:30:58.898Z,0.00
2023-02-09T00:31:58.917Z,0.00
2023-02-09T00:32:58.852Z,0.00
2023-02-09T00:33:59.027Z,0.00
2023-02-09T00:34:58.892Z,0.00
2023-02-09T00:35:58.828Z,0.00
2023-02-09T00:36:58.811Z,0.00
2023-02-09T00:37:59.491Z,0.00
2023-02-09T00:38:58.823Z,0.00
2023-02-09T00:39:58.835Z,0.00
2023-02-09T00:40:58.832Z,0.00
2023-02-09T00:41:58.789Z,0.00
2023-02-09T00:42:59.466Z,0.00
2023-02-09T00:43:58.779Z,0.00
2023-02-09T00:44:58.773Z,0.00
2023-02-09T00:45:58.885Z,0.00
2023-02-09T00:46:59.497Z,0.00
2023-02-09T00:47:58.817Z,0.00
2023-02-09T00:48:58.754Z,0.00
2023-02-09T00:49:58.748Z,0.00
2023-02-09T00:50:58.772Z,0.00
2023-02-09T00:51:58.764Z,0.00
2023-02-09T00:52:58.737Z,0.00
2023-02-09T00:53:58.718Z,0.00
2023-02-09T00:54:58.752Z,0.00
2023-02-09T00:55:58.736Z,0.00
2023-02-09T00:56:58.716Z,0.00
2023-02-09T00:57:58.717Z,0.00
2023-02-09T00:58:58.690Z,0.00
2023-02-09T00:59:59.491Z,0.00
2023-02-09T01:00:58.690Z,0.00
2023-02-09T01:01:58.671Z,0.00
2023-02-09T01:02:58.669Z,0.00
2023-02-09T01:03:58.634Z,0.00
2023-02-09T01:04:58.759Z,0.00
2023-02-09T01:05:59.472Z,0.00
2023-02-09T01:06:58.666Z,0.00
2023-02-09T01:07:58.625Z,0.00
2023-02-09T01:08:59.462Z,0.00
2023-02-09T01:09:58.629Z,0.00
2023-02-09T01:10:58.580Z,0.00
2023-02-09T01:11:58.575Z,0.00
2023-02-09T01:12:58.578Z,0.00
2023-02-09T01:13:58.631Z,0.00
2023-02-09T01:14:58.572Z,0.00
2023-02-09T01:15:58.569Z,0.00
2023-02-09T01:16:58.602Z,0.00
2023-02-09T01:17:58.577Z,0.00
2023-02-09T01:18:58.545Z,0.00
2023-02-09T01:19:58.553Z,0.00
2023-02-09T01:20:58.509Z,0.00
2023-02-09T01:21:58.487Z,0.00
2023-02-09T01:22:58.517Z,0.00
2023-02-09T01:23:58.532Z,0.00
2023-02-09T01:24:58.500Z,0.00
2023-02-09T01:25:58.469Z,0.00
2023-02-09T01:26:58.493Z,0.00
2023-02-09T01:27:58.498Z,0.00
2023-02-09T01:28:58.477Z,0.00
2023-02-09T01:29:58.442Z,0.00
2023-02-09T01:30:58.554Z,0.00
2023-02-09T01:31:58.573Z,0.00
2023-02-09T01:32:58.433Z,0.00
2023-02-09T01:33:58.411Z,0.00
2023-02-09T01:34:58.429Z,0.00
2023-02-09T01:35:58.404Z,0.00
2023-02-09T01:36:58.382Z,0.00
2023-02-09T01:37:58.373Z,0.00
2023-02-09T01:38:58.415Z,0.00
2023-02-09T01:39:58.404Z,0.00
2023-02-09T01:40:58.374Z,0.00
2023-02-09T01:41:58.374Z,0.00
2023-02-09T01:42:58.381Z,0.00
2023-02-09T01:43:58.349Z,0.00
2023-02-09T01:44:58.353Z,0.00
2023-02-09T01:45:58.360Z,0.00
2023-02-09T01:46:58.391Z,0.00
2023-02-09T01:47:58.338Z,0.00
2023-02-09T01:48:58.324Z,0.00
2023-02-09T01:49:58.345Z,0.00
2023-02-09T01:50:58.312Z,0.00
2023-02-09T01:51:58.298Z,0.00
2023-02-09T01:52:58.275Z,0.00
2023-02-09T01:53:58.262Z,0.00
2023-02-09T01:54:58.981Z,0.00
2023-02-09T01:55:58.270Z,0.00
2023-02-09T01:56:58.270Z,0.00
2023-02-09T01:57:58.275Z,0.00
2023-02-09T01:58:58.263Z,0.00
2023-02-09T01:59:58.225Z,0.00
2023-02-09T02:01:00.026Z,0.00
2023-02-09T02:01:59.203Z,0.00
2023-02-09T02:02:58.208Z,0.00
2023-02-09T02:03:58.218Z,0.00
2023-02-09T02:04:58.195Z,0.00
2023-02-09T02:05:58.164Z,0.00
2023-02-09T02:06:58.219Z,0.00
2023-02-09T02:07:58.190Z,0.00
2023-02-09T02:08:58.170Z,0.00
2023-02-09T02:09:58.164Z,0.00
2023-02-09T02:10:59.232Z,0.00
2023-02-09T02:11:58.127Z,0.00
2023-02-09T02:12:58.855Z,0.00
2023-02-09T02:13:58.143Z,0.00
2023-02-09T02:14:58.105Z,0.00
2023-02-09T02:15:58.141Z,0.00
2023-02-09T02:16:58.103Z,0.00
2023-02-09T02:17:58.131Z,0.00
2023-02-09T02:18:58.089Z,0.00
2023-02-09T02:19:58.082Z,0.00
2023-02-09T02:20:58.064Z,0.00
2023-02-09T02:21:58.061Z,0.00
2023-02-09T02:22:58.039Z,0.00
2023-02-09T02:23:58.051Z,0.00
2023-02-09T02:24:58.057Z,0.00
2023-02-09T02:25:58.035Z,0.00
2023-02-09T02:26:58.016Z,0.00
2023-02-09T02:27:58.061Z,0.00
2023-02-09T02:28:58.029Z,0.00
2023-02-09T02:29:57.998Z,0.00
2023-02-09T02:30:58.028Z,0.00
2023-02-09T02:31:58.117Z,0.00
2023-02-09T02:32:57.987Z,0.00
2023-02-09T02:33:57.979Z,0.00
2023-02-09T02:34:57.974Z,0.00
2023-02-09T02:35:57.963Z,0.00
2023-02-09T02:36:57.933Z,0.00
2023-02-09T02:37:58.949Z,0.00
2023-02-09T02:38:57.932Z,0.00
2023-02-09T02:39:57.966Z,0.00
2023-02-09T02:40:57.915Z,0.00
2023-02-09T02:41:57.899Z,0.00
2023-02-09T02:42:57.917Z,0.00
2023-02-09T02:43:57.882Z,0.00
2023-02-09T02:44:57.924Z,0.00
2023-02-09T02:45:57.895Z,0.00
2023-02-09T02:46:57.881Z,0.00
2023-02-09T02:47:57.856Z,0.00
2023-02-09T02:48:57.844Z,0.00
2023-02-09T02:49:57.877Z,0.00
2023-02-09T02:50:57.890Z,0.00
2023-02-09T02:51:57.845Z,0.00
2023-02-09T02:52:57.871Z,0.00
2023-02-09T02:53:58.451Z,0.00
2023-02-09T02:54:57.844Z,0.00
2023-02-09T02:55:57.830Z,0.00
2023-02-09T02:56:57.836Z,0.00
2023-02-09T02:57:57.803Z,0.00
2023-02-09T02:58:57.799Z,0.00
2023-02-09T02:59:57.815Z,0.00
2023-02-09T03:00:57.771Z,0.00
2023-02-09T03:01:57.852Z,0.00
2023-02-09T03:02:57.784Z,0.00
2023-02-09T03:03:57.744Z,0.00
2023-02-09T03:04:57.767Z,0.00
2023-02-09T03:05:57.741Z,0.00
2023-02-09T03:06:57.766Z,0.00
2023-02-09T03:07:57.720Z,0.00
2023-02-09T03:08:57.718Z,0.00
2023-02-09T03:09:57.711Z,0.00
2023-02-09T03:10:57.697Z,0.00
2023-02-09T03:11:57.725Z,0.00
2023-02-09T03:12:57.701Z,0.00
2023-02-09T03:13:57.697Z,0.00
2023-02-09T03:19:33.087Z,0.00
2023-02-09T03:20:33.084Z,0.00
2023-02-09T03:21:33.075Z,0.00
2023-02-09T03:22:34.183Z,0.00
2023-02-09T03:23:34.188Z,0.00
2023-02-09T03:24:34.176Z,0.00
2023-02-09T03:25:34.173Z,0.00
2023-02-09T03:26:34.173Z,0.00
2023-02-09T03:27:34.160Z,0.00
2023-02-09T03:28:34.181Z,0.00
2023-02-09T03:29:34.166Z,0.00
2023-02-09T03:30:34.217Z,0.00
2023-02-09T03:31:34.171Z,0.00
2023-02-09T03:32:34.145Z,0.00
2023-02-09T03:33:34.113Z,0.00
2023-02-09T03:34:34.120Z,0.00
2023-02-09T03:35:34.104Z,0.00
2023-02-09T03:36:34.092Z,0.00
2023-02-09T03:37:34.120Z,0.00
2023-02-09T03:38:34.064Z,0.00
2023-02-09T03:39:34.058Z,0.00
2023-02-09T03:40:34.068Z,0.00
2023-02-09T03:41:34.066Z,0.00
2023-02-09T03:42:34.077Z,0.00
2023-02-09T03:43:34.061Z,0.00
2023-02-09T03:44:34.030Z,0.00
2023-02-09T03:45:34.055Z,0.00
2023-02-09T03:46:34.033Z,0.00
2023-02-09T03:47:34.041Z,0.00
2023-02-09T04:03:13.409Z,0.00
2023-02-09T04:04:13.371Z,0.00
2023-02-09T04:05:13.396Z,0.00
2023-02-09T04:06:13.362Z,0.00
2023-02-09T04:07:13.368Z,0.00
2023-02-09T04:08:13.352Z,0.00
2023-02-09T04:09:13.372Z,0.00
2023-02-09T04:10:13.395Z,0.00
2023-02-09T04:11:13.340Z,0.00
2023-02-09T04:12:13.327Z,0.00
2023-02-09T04:13:13.319Z,0.00
2023-02-09T04:14:13.301Z,0.00
2023-02-09T04:15:13.312Z,0.00
2023-02-09T04:16:13.383Z,0.00
2023-02-09T04:17:13.311Z,0.00
2023-02-09T04:18:13.272Z,0.00
2023-02-09T04:19:13.289Z,0.00
2023-02-09T04:20:13.259Z,0.00
2023-02-09T04:21:14.405Z,0.00
2023-02-09T04:22:14.399Z,0.00
2023-02-09T04:23:14.386Z,0.00
2023-02-09T04:24:14.387Z,0.00
2023-02-09T04:25:14.361Z,0.00
2023-02-09T04:26:14.354Z,0.00
2023-02-09T04:27:14.377Z,0.00
2023-02-09T04:28:15.208Z,0.00
2023-02-09T04:29:14.353Z,0.00
2023-02-09T04:30:14.340Z,0.00
2023-02-09T04:31:15.186Z,0.00
2023-02-09T04:32:14.319Z,0.00
2023-02-09T04:33:14.336Z,0.00
2023-02-09T04:34:14.296Z,0.00
2023-02-09T04:35:14.282Z,0.00
2023-02-09T04:36:14.293Z,0.00
2023-02-09T04:37:14.275Z,0.00
2023-02-09T04:38:14.317Z,0.00
2023-02-09T04:39:14.273Z,0.00
2023-02-09T04:40:14.253Z,0.00
2023-02-09T04:41:14.248Z,0.00
2023-02-09T04:42:14.246Z,0.00
2023-02-09T04:43:14.270Z,0.00
2023-02-09T04:44:14.223Z,0.00
2023-02-09T04:45:15.111Z,0.00
2023-02-09T04:46:14.329Z,0.00
2023-02-09T04:47:14.210Z,0.00
2023-02-09T04:48:14.206Z,0.00
2023-02-09T04:49:14.212Z,0.00
2023-02-09T04:50:14.392Z,0.00
2023-02-09T04:51:14.185Z,0.00
2023-02-09T04:52:14.172Z,0.00
2023-02-09T04:53:14.167Z,0.00
2023-02-09T04:54:14.147Z,0.00
2023-02-09T04:55:14.179Z,0.00
2023-02-09T04:56:15.095Z,0.00
2023-02-09T04:57:15.146Z,0.00
2023-02-09T04:58:16.239Z,0.00
2023-02-09T04:59:14.131Z,0.00
2023-02-09T05:00:14.151Z,0.00
2023-02-09T05:01:14.219Z,0.00
2023-02-09T05:02:14.096Z,0.00
2023-02-09T05:03:14.155Z,0.00
2023-02-09T05:04:14.093Z,0.00
2023-02-09T05:05:14.166Z,0.00
2023-02-09T05:06:14.065Z,0.00
2023-02-09T05:07:14.095Z,0.00
2023-02-09T05:08:14.055Z,0.00
2023-02-09T05:09:15.062Z,0.00
2023-02-09T05:10:14.065Z,0.00
2023-02-09T05:11:14.026Z,0.00
2023-02-09T05:12:14.041Z,0.00
2023-02-09T05:13:14.013Z,0.00
2023-02-09T05:14:14.625Z,0.00
2023-02-09T05:15:14.016Z,0.00
2023-02-09T05:16:14.006Z,0.00
2023-02-09T05:17:14.072Z,0.00
2023-02-09T05:18:14.014Z,0.00
2023-02-09T05:19:13.969Z,0.00
2023-02-09T05:20:13.977Z,0.00
2023-02-09T05:21:13.985Z,0.00
2023-02-09T05:22:13.958Z,0.00
2023-02-09T05:23:13.954Z,0.00
2023-02-09T05:24:13.963Z,0.00
2023-02-09T05:25:14.924Z,0.00
2023-02-09T05:26:14.030Z,0.00
2023-02-09T05:27:13.927Z,0.00
2023-02-09T05:28:13.958Z,0.00
2023-02-09T05:29:13.933Z,0.00
2023-02-09T05:30:13.926Z,0.00
2023-02-09T05:31:13.934Z,0.00
2023-02-09T05:32:13.935Z,0.00
2023-02-09T05:33:13.889Z,0.00
2023-02-09T05:34:13.903Z,0.00
2023-02-09T05:35:13.909Z,0.00
2023-02-09T05:36:13.861Z,0.00
2023-02-09T05:37:13.842Z,0.00
2023-02-09T05:38:13.843Z,0.00
2023-02-09T05:39:13.882Z,0.00
2023-02-09T05:40:14.008Z,0.00
2023-02-09T05:41:14.832Z,0.00
2023-02-09T05:42:13.812Z,0.00
2023-02-09T05:43:13.847Z,0.00
2023-02-09T05:44:13.825Z,0.00
2023-02-09T05:45:13.824Z,0.00
2023-02-09T05:46:13.924Z,0.00
2023-02-09T05:47:13.798Z,0.00
2023-02-09T05:48:13.792Z,0.00
2023-02-09T05:49:13.787Z,0.00
2023-02-09T05:50:13.781Z,0.00
2023-02-09T05:51:13.771Z,0.00
2023-02-09T05:52:13.747Z,0.00
2023-02-09T05:53:15.180Z,0.00
2023-02-09T05:54:14.733Z,0.00
2023-02-09T05:55:13.767Z,0.00
2023-02-09T05:56:13.884Z,0.00
2023-02-09T05:57:13.731Z,0.00
2023-02-09T05:58:13.692Z,0.00
2023-02-09T05:59:13.687Z,0.00
2023-02-09T06:00:13.708Z,0.00
2023-02-09T06:01:14.610Z,0.00
2023-02-09T06:02:13.792Z,0.00
2023-02-09T06:03:13.784Z,0.00
2023-02-09T06:04:14.647Z,0.00
2023-02-09T06:05:13.660Z,0.00
2023-02-09T06:06:13.660Z,0.00
2023-02-09T06:07:13.664Z,0.00
2023-02-09T06:08:13.656Z,0.00
2023-02-09T06:09:13.723Z,0.00
2023-02-09T06:10:13.598Z,0.00
2023-02-09T06:11:13.589Z,0.00
2023-02-09T06:12:14.397Z,0.00
2023-02-09T06:13:13.588Z,0.00
2023-02-09T06:14:13.588Z,0.00
2023-02-09T06:15:13.588Z,0.00
2023-02-09T06:16:13.556Z,0.00
2023-02-09T06:17:13.583Z,0.00
2023-02-09T06:18:13.641Z,0.00
2023-02-09T06:19:13.569Z,0.00
2023-02-09T06:20:13.571Z,0.00
2023-02-09T06:21:45.424Z,0.00
2023-02-09T06:22:13.677Z,0.00
2023-02-09T06:23:13.501Z,0.00
2023-02-09T06:24:13.495Z,0.00
2023-02-09T06:25:13.537Z,5.62
2023-02-09T06:26:13.502Z,5.62
2023-02-09T06:27:13.505Z,5.62
2023-02-09T06:28:13.505Z,5.62
2023-02-09T06:29:13.452Z,5.62
2023-02-09T06:30:14.460Z,5.62
2023-02-09T06:31:13.597Z,11.25
2023-02-09T06:32:13.550Z,11.25
2023-02-09T06:33:13.427Z,11.25
2023-02-09T06:34:13.445Z,11.25
2023-02-09T06:35:13.421Z,11.25
2023-02-09T06:36:13.428Z,16.88
2023-02-09T06:37:13.420Z,16.88
2023-02-09T06:38:13.405Z,16.88
2023-02-09T06:39:14.118Z,22.50
2023-02-09T06:40:13.397Z,22.50
2023-02-09T06:41:13.441Z,22.50
2023-02-09T06:42:13.386Z,28.12
2023-02-09T06:43:13.381Z,28.12
2023-02-09T06:44:13.377Z,28.12
2023-02-09T06:45:13.396Z,33.75
2023-02-09T06:46:13.449Z,33.75
2023-02-09T06:47:13.355Z,39.38
2023-02-09T06:48:13.366Z,39.38
2023-02-09T06:49:13.392Z,45.00
2023-02-09T06:50:13.363Z,45.00
2023-02-09T06:51:13.307Z,50.62
2023-02-09T06:52:13.322Z,50.62
2023-02-09T06:53:13.300Z,56.25
2023-02-09T06:54:13.300Z,61.88
2023-02-09T06:55:13.338Z,61.88
2023-02-09T06:56:13.305Z,67.50
2023-02-09T06:57:13.294Z,67.50
2023-02-09T06:58:13.265Z,73.12
2023-02-09T06:59:13.269Z,78.75
2023-02-09T07:00:13.304Z,78.75
2023-02-09T07:01:13.268Z,84.38
2023-02-09T07:02:13.268Z,90.00
2023-02-09T07:03:13.263Z,90.00
2023-02-09T07:04:13.262Z,95.62
2023-02-09T07:05:13.254Z,101.25
2023-02-09T07:06:13.213Z,101.25
2023-02-09T07:07:13.288Z,106.88
2023-02-09T07:08:13.202Z,112.50
2023-02-09T07:09:13.183Z,112.50
2023-02-09T07:10:13.213Z,118.12
2023-02-09T07:11:13.184Z,123.75
2023-02-09T07:12:13.156Z,129.38
2023-02-09T07:13:13.148Z,129.38
2023-02-09T07:14:13.133Z,135.00
2023-02-09T07:15:13.170Z,140.62
2023-02-09T07:16:13.200Z,146.25
2023-02-09T07:17:13.126Z,151.88
2023-02-09T07:18:13.223Z,151.88
2023-02-09T07:19:13.187Z,157.50
2023-02-09T07:20:13.117Z,163.12
2023-02-09T07:21:14.165Z,168.75
2023-02-09T07:22:13.088Z,241.88
2023-02-09T07:23:13.128Z,433.12
2023-02-09T07:24:13.098Z,686.25
2023-02-09T07:25:13.102Z,933.75
2023-02-09T07:26:13.083Z,1355.62
2023-02-09T07:27:13.063Z,1608.75
2023-02-09T07:28:13.084Z,1608.75
2023-02-09T07:29:13.083Z,1276.88
2023-02-09T07:30:14.066Z,1186.88
2023-02-09T07:31:13.246Z,1614.38
2023-02-09T07:32:13.017Z,2047.50
2023-02-09T07:33:13.057Z,2109.38
2023-02-09T07:34:13.074Z,2255.62
2023-02-09T07:35:13.010Z,2328.75
2023-02-09T07:36:13.019Z,2205.00
2023-02-09T07:37:13.020Z,2351.25
2023-02-09T07:38:12.990Z,2435.62
2023-02-09T07:39:12.978Z,2385.00
2023-02-09T07:40:12.972Z,2413.12
2023-02-09T07:41:13.017Z,2311.88
2023-02-09T07:42:12.940Z,1783.12
2023-02-09T07:43:12.946Z,1518.75
2023-02-09T07:44:12.931Z,1974.38
2023-02-09T07:45:12.910Z,2480.62
2023-02-09T07:46:12.959Z,2671.88
2023-02-09T07:47:12.923Z,2536.88
2023-02-09T07:48:12.903Z,2356.88
2023-02-09T07:49:14.157Z,2818.12
2023-02-09T07:50:12.896Z,2857.50
2023-02-09T07:51:12.880Z,2722.50
2023-02-09T07:52:14.145Z,2666.25
2023-02-09T07:53:12.901Z,2643.75
2023-02-09T07:54:12.860Z,2621.25
2023-02-09T07:55:12.841Z,2666.25
2023-02-09T07:56:12.845Z,2716.88
2023-02-09T07:57:12.859Z,2767.50
2023-02-09T07:58:12.818Z,2812.50
2023-02-09T07:59:12.826Z,2818.12
2023-02-09T08:00:12.815Z,2857.50
2023-02-09T08:01:12.824Z,2857.50
2023-02-09T08:02:12.811Z,2885.62
2023-02-09T08:03:12.769Z,2913.75
2023-02-09T08:04:12.779Z,2941.88
2023-02-09T08:05:12.874Z,2986.88
2023-02-09T08:06:12.742Z,2953.12
2023-02-09T08:07:12.754Z,2998.12
2023-02-09T08:08:12.737Z,3048.75
2023-02-09T08:09:12.752Z,3031.88
2023-02-09T08:10:12.716Z,3133.12
2023-02-09T08:11:12.742Z,3211.88
2023-02-09T08:12:12.799Z,3178.12
2023-02-09T08:13:12.734Z,3144.38
2023-02-09T08:14:12.698Z,3099.38
2023-02-09T08:15:12.683Z,3211.88
2023-02-09T08:16:59.225Z,3285.00
2023-02-09T08:17:59.244Z,3228.75
2023-02-09T08:18:59.229Z,3189.38
2023-02-09T08:20:00.374Z,3234.38
2023-02-09T08:21:00.340Z,3307.50
2023-02-09T08:22:00.345Z,3285.00
2023-02-09T08:23:00.316Z,3318.75
2023-02-09T08:24:00.324Z,3487.50
2023-02-09T08:25:00.328Z,3481.88
2023-02-09T08:26:00.323Z,3498.75
2023-02-09T08:27:00.294Z,3431.25
2023-02-09T08:28:00.351Z,3391.88
2023-02-09T08:29:00.343Z,3223.12
2023-02-09T08:30:00.326Z,3285.00
2023-02-09T08:31:00.292Z,3476.25
2023-02-09T08:32:00.323Z,3476.25
2023-02-09T08:33:00.250Z,3453.75
2023-02-09T08:34:00.251Z,3515.62
2023-02-09T08:35:00.227Z,3605.62
2023-02-09T08:36:00.241Z,3645.00
2023-02-09T08:37:00.271Z,3645.00
2023-02-09T08:38:00.216Z,3639.38
2023-02-09T08:39:00.207Z,3712.50
2023-02-09T08:40:00.200Z,3723.75
2023-02-09T08:41:00.214Z,3661.88
2023-02-09T08:42:00.188Z,3740.62
2023-02-09T08:43:00.172Z,3661.88
2023-02-09T08:44:00.189Z,3706.88
2023-02-09T08:45:00.182Z,3729.38
2023-02-09T08:46:00.337Z,3718.12
2023-02-09T08:47:00.345Z,3740.62
2023-02-09T08:48:00.124Z,3735.00
2023-02-09T08:49:00.115Z,3735.00
2023-02-09T08:50:00.111Z,3701.25
2023-02-09T08:51:01.143Z,3706.88
2023-02-09T08:52:00.116Z,3808.12
2023-02-09T08:53:00.195Z,3858.75
2023-02-09T08:54:00.107Z,3746.25
2023-02-09T08:55:00.085Z,3768.75
2023-02-09T08:56:00.093Z,3785.62
2023-02-09T08:57:00.088Z,3740.62
2023-02-09T08:58:00.107Z,3622.50
2023-02-09T08:59:00.046Z,3538.12
2023-02-09T09:00:00.062Z,3425.62
2023-02-09T09:01:00.223Z,3391.88
2023-02-09T09:02:00.069Z,3515.62
2023-02-09T09:03:00.095Z,3701.25
2023-02-09T09:04:00.126Z,3560.62
2023-02-09T09:04:59.991Z,2250.00
2023-02-09T09:06:00.005Z,1580.62
2023-02-09T09:07:00.060Z,1507.50
2023-02-09T09:07:59.990Z,1485.00
2023-02-09T09:08:59.971Z,1468.12
2023-02-09T09:09:59.976Z,1473.75
2023-02-09T09:10:59.939Z,1496.25
2023-02-09T09:11:59.959Z,1524.38
2023-02-09T09:12:59.935Z,1575.00
2023-02-09T09:13:59.945Z,1620.00
2023-02-09T09:14:59.966Z,1648.12
2023-02-09T09:15:59.942Z,1704.38
2023-02-09T09:16:59.961Z,1901.25
2023-02-09T09:17:59.906Z,2205.00
2023-02-09T09:18:59.938Z,2469.38
2023-02-09T09:19:59.877Z,2576.25
2023-02-09T09:20:59.905Z,2334.38
2023-02-09T09:21:59.903Z,2193.75
2023-02-09T09:22:59.864Z,2295.00
2023-02-09T09:23:59.880Z,2233.12
2023-02-09T09:24:59.872Z,2070.00
2023-02-09T09:25:59.859Z,2075.62
2023-02-09T09:26:59.847Z,2115.00
2023-02-09T09:27:59.849Z,2143.12
2023-02-09T09:28:59.808Z,2115.00
2023-02-09T09:29:59.838Z,2148.75
2023-02-09T09:30:59.942Z,2188.12
2023-02-09T09:31:59.806Z,2238.75
2023-02-09T09:32:59.868Z,2165.62
2023-02-09T09:33:59.780Z,2030.62
2023-02-09T09:34:59.800Z,1968.75
2023-02-09T09:35:59.749Z,1951.88
2023-02-09T09:36:59.744Z,1878.75
2023-02-09T09:37:59.765Z,1800.00
2023-02-09T09:38:59.764Z,1755.00
2023-02-09T09:39:59.750Z,1710.00
2023-02-09T09:40:59.726Z,1771.88
2023-02-09T09:41:59.703Z,1845.00
2023-02-09T09:42:59.719Z,1890.00
2023-02-09T09:43:59.768Z,1918.12
2023-02-09T09:44:59.700Z,1890.00
2023-02-09T09:45:59.732Z,1839.38
2023-02-09T09:46:59.663Z,1794.38
2023-02-09T09:47:59.696Z,1811.25
2023-02-09T09:48:59.671Z,1805.62
2023-02-09T09:49:59.659Z,1890.00
2023-02-09T09:50:59.669Z,1996.88
2023-02-09T09:51:59.661Z,2221.88
2023-02-09T09:52:59.617Z,2503.12
2023-02-09T09:53:59.606Z,2671.88
2023-02-09T09:54:59.612Z,2795.62
2023-02-09T09:55:59.654Z,3043.12
2023-02-09T09:56:59.639Z,3133.12
2023-02-09T09:57:59.577Z,3504.38
2023-02-09T09:58:59.588Z,4331.25
2023-02-09T09:59:59.600Z,4708.12
2023-02-09T10:00:59.612Z,4353.75
2023-02-09T10:01:59.599Z,3583.12
2023-02-09T10:02:59.596Z,2874.38
2023-02-09T10:03:59.534Z,2334.38
2023-02-09T10:04:59.601Z,1968.75
2023-02-09T10:05:59.520Z,1738.12
2023-02-09T10:06:59.521Z,1614.38
2023-02-09T10:07:59.610Z,1524.38
2023-02-09T10:08:59.502Z,1473.75
2023-02-09T10:09:59.551Z,1389.38
2023-02-09T10:10:59.569Z,1316.25
2023-02-09T10:11:59.481Z,1293.75
2023-02-09T10:12:59.510Z,1215.00
2023-02-09T10:13:59.507Z,1237.50
2023-02-09T10:14:59.478Z,1220.62
2023-02-09T10:15:59.475Z,1186.88
2023-02-09T10:16:59.564Z,1175.62
2023-02-09T10:17:59.460Z,1158.75
2023-02-09T10:18:59.474Z,1170.00
2023-02-09T10:19:59.457Z,1164.38
2023-02-09T10:20:59.444Z,1153.12
2023-02-09T10:21:59.430Z,1130.62
2023-02-09T10:22:59.403Z,1125.00
2023-02-09T10:23:59.455Z,1119.38
2023-02-09T10:24:59.400Z,1141.88
2023-02-09T10:25:59.381Z,1108.12
2023-02-09T10:26:59.413Z,1091.25
2023-02-09T10:27:59.410Z,1074.38
2023-02-09T10:28:59.378Z,1051.88
2023-02-09T10:29:59.376Z,1063.12
2023-02-09T10:30:59.391Z,1068.75
2023-02-09T10:31:59.388Z,1035.00
2023-02-09T10:32:59.339Z,1035.00
2023-02-09T10:33:59.398Z,1018.12
2023-02-09T10:34:59.335Z,978.75
2023-02-09T10:35:59.294Z,984.38
2023-02-09T10:36:59.336Z,1001.25
2023-02-09T10:37:59.290Z,1006.88
2023-02-09T10:38:59.310Z,984.38
2023-02-09T10:39:59.289Z,1001.25
2023-02-09T10:40:59.291Z,990.00
2023-02-09T10:41:59.315Z,984.38
2023-02-09T10:42:59.246Z,967.50
2023-02-09T10:43:59.257Z,956.25
2023-02-09T10:44:59.318Z,945.00
2023-02-09T10:45:59.241Z,939.38
2023-02-09T10:46:59.232Z,922.50
2023-02-09T10:47:59.221Z,900.00
2023-02-09T10:48:59.191Z,843.75
2023-02-09T10:49:59.212Z,815.62
2023-02-09T10:50:59.187Z,855.00
2023-02-09T10:51:59.196Z,849.38
2023-02-09T10:52:59.166Z,849.38
2023-02-09T10:53:59.187Z,860.62
2023-02-09T10:54:59.146Z,832.50
2023-02-09T10:55:59.154Z,832.50
2023-02-09T10:57:00.889Z,815.62
2023-02-09T10:57:59.170Z,793.12
2023-02-09T10:58:59.114Z,787.50
2023-02-09T10:59:59.120Z,793.12
2023-02-09T11:00:59.092Z,798.75
2023-02-09T11:01:59.173Z,787.50
2023-02-09T11:02:59.087Z,793.12
2023-02-09T11:03:59.142Z,776.25
2023-02-09T11:04:59.081Z,720.00
2023-02-09T11:05:59.076Z,540.00
2023-02-09T11:06:59.085Z,708.75
2023-02-09T11:07:59.069Z,759.38
2023-02-09T11:08:59.053Z,759.38
2023-02-09T11:09:59.032Z,736.88
2023-02-09T11:10:59.022Z,748.12
2023-02-09T11:11:59.946Z,731.25
2023-02-09T11:12:59.016Z,731.25
2023-02-09T11:13:59.026Z,731.25
2023-02-09T11:14:59.008Z,731.25
2023-02-09T11:15:59.072Z,725.62
2023-02-09T11:16:58.990Z,720.00
2023-02-09T11:17:59.001Z,725.62
2023-02-09T11:18:59.022Z,725.62
2023-02-09T11:19:58.986Z,731.25
2023-02-09T11:20:58.959Z,742.50
2023-02-09T11:21:58.943Z,731.25
2023-02-09T11:22:58.920Z,714.38
2023-02-09T11:23:58.968Z,635.62
2023-02-09T11:24:58.914Z,495.00
2023-02-09T11:25:58.929Z,562.50
2023-02-09T11:26:58.901Z,568.12
2023-02-09T11:27:58.935Z,607.50
2023-02-09T11:28:58.909Z,652.50
2023-02-09T11:29:58.908Z,658.12
2023-02-09T11:30:59.081Z,646.88
2023-02-09T11:31:58.954Z,646.88
2023-02-09T11:32:58.842Z,646.88
2023-02-09T11:33:58.871Z,630.00
2023-02-09T11:34:58.859Z,624.38
2023-02-09T11:35:58.825Z,630.00
2023-02-09T11:36:58.822Z,618.75
2023-02-09T11:37:58.826Z,618.75
2023-02-09T11:38:58.851Z,613.12
2023-02-09T11:39:58.804Z,618.75
2023-02-09T11:40:58.835Z,613.12
2023-02-09T11:41:58.772Z,613.12
2023-02-09T11:42:58.762Z,613.12
2023-02-09T11:43:58.766Z,613.12
2023-02-09T11:44:58.743Z,618.75
2023-02-09T11:45:58.773Z,613.12
2023-02-09T11:46:58.739Z,607.50
2023-02-09T11:47:58.734Z,607.50
2023-02-09T11:48:58.723Z,601.88
2023-02-09T11:49:58.706Z,596.25
2023-02-09T11:50:58.731Z,596.25
2023-02-09T11:51:58.706Z,590.62
2023-02-09T11:52:58.704Z,585.00
2023-02-09T11:53:58.683Z,568.12
2023-02-09T11:54:58.754Z,568.12
2023-02-09T11:55:59.433Z,551.25
2023-02-09T11:56:58.671Z,523.12
2023-02-09T11:57:58.636Z,540.00
2023-02-09T11:58:59.655Z,540.00
2023-02-09T11:59:58.700Z,540.00
2023-02-09T12:01:13.320Z,551.25
2023-02-09T12:02:00.629Z,540.00
2023-02-09T12:02:58.688Z,517.50
2023-02-09T12:03:58.614Z,517.50
2023-02-09T12:04:58.594Z,506.25
2023-02-09T12:05:58.599Z,511.88
2023-02-09T12:06:58.603Z,506.25
2023-02-09T12:07:58.609Z,472.50
2023-02-09T12:08:59.623Z,466.88
2023-02-09T12:09:58.558Z,433.12
2023-02-09T12:10:58.574Z,416.25
2023-02-09T12:11:58.563Z,421.88
2023-02-09T12:12:58.533Z,399.38
2023-02-09T12:13:58.550Z,410.62
2023-02-09T12:14:58.569Z,433.12
2023-02-09T12:15:59.548Z,438.75
2023-02-09T12:16:58.506Z,438.75
2023-02-09T12:17:58.511Z,444.38
2023-02-09T12:18:58.529Z,444.38
2023-02-09T12:19:59.548Z,438.75
2023-02-09T12:21:30.374Z,438.75
2023-02-09T12:21:58.480Z,427.50
2023-02-09T12:22:58.482Z,427.50
2023-02-09T12:23:58.490Z,421.88
2023-02-09T12:24:58.485Z,433.12
2023-02-09T12:25:58.464Z,427.50
2023-02-09T12:26:58.484Z,427.50
2023-02-09T12:27:58.993Z,438.75
2023-02-09T12:28:59.420Z,438.75
2023-02-09T12:29:58.428Z,438.75
2023-02-09T12:30:58.511Z,427.50
2023-02-09T12:31:58.445Z,421.88
2023-02-09T12:32:58.363Z,433.12
2023-02-09T12:33:58.411Z,433.12
2023-02-09T12:34:58.354Z,438.75
2023-02-09T12:35:58.381Z,433.12
2023-02-09T12:36:58.368Z,438.75
2023-02-09T12:37:58.375Z,438.75
2023-02-09T12:39:04.612Z,427.50
2023-02-09T12:40:00.313Z,433.12
2023-02-09T12:40:59.333Z,438.75
2023-02-09T12:41:58.356Z,438.75
2023-02-09T12:42:58.292Z,450.00
2023-02-09T12:43:58.303Z,450.00
2023-02-09T12:44:58.293Z,444.38
2023-02-09T12:45:58.325Z,433.12
2023-02-09T12:46:58.295Z,433.12
2023-02-09T12:47:58.286Z,438.75
2023-02-09T12:48:58.300Z,450.00
2023-02-09T12:49:59.038Z,450.00
2023-02-09T12:50:58.255Z,450.00
2023-02-09T12:51:58.295Z,450.00
2023-02-09T12:52:58.222Z,450.00
2023-02-09T12:53:58.206Z,444.38
2023-02-09T12:54:58.268Z,438.75
2023-02-09T12:55:58.198Z,433.12
2023-02-09T12:56:58.221Z,433.12
2023-02-09T12:57:58.232Z,433.12
2023-02-09T12:58:58.199Z,421.88
2023-02-09T12:59:58.221Z,416.25
2023-02-09T13:00:58.205Z,410.62
2023-02-09T13:01:58.159Z,410.62
2023-02-09T13:02:58.197Z,405.00
2023-02-09T13:03:58.255Z,410.62
2023-02-09T13:04:58.244Z,399.38
2023-02-09T13:05:58.143Z,399.38